createdAt,value
2023-02-22T00:01:35.874Z,96772.31
2023-02-22T00:04:04.838Z,96761.28
2023-02-22T00:06:31.487Z,96766.16
2023-02-22T00:08:58.774Z,96765.25
2023-02-22T00:11:26.760Z,96765.94
2023-02-22T00:13:57.050Z,96757.13
2023-02-22T00:16:25.290Z,96759.97
2023-02-22T00:18:52.405Z,96758.00
2023-02-22T00:21:19.196Z,96757.84
2023-02-22T00:23:47.239Z,96762.00
2023-02-22T00:26:18.142Z,96751.84
2023-02-22T00:28:49.836Z,96746.78
2023-02-22T00:31:18.614Z,96753.34
2023-02-22T00:33:45.344Z,96758.59
2023-02-22T00:36:13.121Z,96745.72
2023-02-22T00:38:40.757Z,96750.00
2023-02-22T00:41:07.273Z,96753.56
2023-02-22T00:43:34.329Z,96751.84
2023-02-22T00:46:00.840Z,96746.13
2023-02-22T00:48:28.432Z,96744.50
2023-02-22T00:50:55.351Z,96745.25
2023-02-22T00:53:23.930Z,96745.91
2023-02-22T00:55:51.104Z,96738.94
2023-02-22T00:58:18.477Z,96738.03
2023-02-22T01:00:45.846Z,96738.75
2023-02-22T01:03:15.226Z,96734.56
2023-02-22T01:05:42.603Z,96741.13
2023-02-22T01:08:11.060Z,96732.59
2023-02-22T01:10:38.552Z,96727.41
2023-02-22T01:13:08.505Z,96734.34
2023-02-22T01:15:37.517Z,96731.03
2023-02-22T01:18:05.193Z,96727.59
2023-02-22T01:20:32.772Z,96726.59
2023-02-22T01:23:01.293Z,96731.63
2023-02-22T01:25:30.054Z,96722.16
2023-02-22T01:27:58.873Z,96731.31
2023-02-22T01:30:29.079Z,96729.50
2023-02-22T01:32:55.682Z,96724.31
2023-02-22T01:35:27.818Z,96714.00
2023-02-22T01:37:54.780Z,96717.22
2023-02-22T01:40:25.280Z,96720.31
2023-02-22T01:42:53.609Z,96719.31
2023-02-22T01:45:35.166Z,96719.22
2023-02-22T01:48:13.982Z,96714.19
2023-02-22T01:50:44.948Z,96715.84
2023-02-22T01:53:15.956Z,96718.34
2023-02-22T01:55:42.983Z,96716.47
2023-02-22T01:58:10.082Z,96718.03
2023-02-22T02:00:37.112Z,96706.91
2023-02-22T02:03:11.698Z,96709.31
2023-02-22T02:05:38.996Z,96711.78
2023-02-22T02:08:35.893Z,96710.06
2023-02-22T02:11:08.736Z,96704.00
2023-02-22T02:13:37.185Z,96697.97
2023-02-22T02:16:03.941Z,96701.16
2023-02-22T02:18:41.123Z,96696.69
2023-02-22T02:24:11.029Z,96697.63
2023-02-22T02:27:03.044Z,96696.78
2023-02-22T02:29:41.537Z,96693.34
2023-02-22T02:32:49.536Z,96681.44
2023-02-22T02:35:35.190Z,96688.09
2023-02-22T02:38:17.290Z,96683.16
2023-02-22T02:41:19.746Z,96685.69
2023-02-22T02:43:57.403Z,96681.56
2023-02-22T02:46:26.455Z,96677.16
2023-02-22T02:48:59.410Z,96672.81
2023-02-22T02:51:30.805Z,96666.88
2023-02-22T02:53:57.533Z,96662.66
2023-02-22T02:56:24.158Z,96668.53
2023-02-22T02:58:52.842Z,96657.66
2023-02-22T03:01:47.235Z,96658.28
2023-02-22T03:04:37.390Z,96656.41
2023-02-22T03:07:11.061Z,96654.81
2023-02-22T03:10:09.565Z,96654.00
2023-02-22T03:12:49.177Z,96656.41
2023-02-22T03:15:44.110Z,96652.09
2023-02-22T03:18:25.118Z,96654.56
2023-02-22T03:21:14.199Z,96648.63
2023-02-22T03:24:04.969Z,96652.81
2023-02-22T03:26:56.400Z,96649.47
2023-02-22T03:29:26.190Z,96648.63
2023-02-22T03:32:01.198Z,96645.84
2023-02-22T03:34:52.634Z,96653.34
2023-02-22T03:37:30.950Z,96644.91
2023-02-22T03:40:01.053Z,96643.13
2023-02-22T03:42:37.551Z,96645.59
2023-02-22T03:45:07.048Z,96646.31
2023-02-22T03:47:43.451Z,96641.16
2023-02-22T03:50:15.272Z,96645.25
2023-02-22T03:52:44.013Z,96643.50
2023-02-22T03:55:12.629Z,96647.59
2023-02-22T03:57:43.804Z,96642.41
2023-02-22T04:00:14.643Z,96622.56
2023-02-22T04:02:42.125Z,96643.63
2023-02-22T04:05:09.352Z,96648.53
2023-02-22T04:07:35.779Z,96645.03
2023-02-22T04:10:03.237Z,96646.47
2023-02-22T04:12:29.654Z,96647.38
2023-02-22T04:14:56.007Z,96643.94
2023-02-22T04:17:22.361Z,96643.94
2023-02-22T04:19:48.802Z,96652.44
2023-02-22T04:22:15.271Z,96650.69
2023-02-22T04:24:41.621Z,96645.69
2023-02-22T04:27:08.004Z,96651.72
2023-02-22T04:29:34.439Z,96646.72
2023-02-22T04:32:00.869Z,96648.22
2023-02-22T04:34:27.240Z,96657.63
2023-02-22T04:36:53.658Z,96643.28
2023-02-22T04:39:20.164Z,96650.81
2023-02-22T04:41:47.530Z,96640.59
2023-02-22T04:44:14.248Z,96644.09
2023-02-22T04:46:40.686Z,96646.50
2023-02-22T04:49:07.256Z,96642.97
2023-02-22T04:51:33.852Z,96643.69
2023-02-22T04:54:00.462Z,96635.91
2023-02-22T04:56:26.943Z,96629.97
2023-02-22T04:58:53.449Z,96636.91
2023-02-22T05:01:20.061Z,96634.28
2023-02-22T05:03:46.537Z,96646.09
2023-02-22T05:06:13.126Z,96635.03
2023-02-22T05:08:39.556Z,96641.03
2023-02-22T05:11:06.299Z,96641.88
2023-02-22T05:13:32.902Z,96638.47
2023-02-22T05:15:59.405Z,96635.94
2023-02-22T05:18:25.815Z,96636.91
2023-02-22T05:20:52.486Z,96638.56
2023-02-22T05:23:18.918Z,96638.50
2023-02-22T05:25:46.033Z,96632.78
2023-02-22T05:28:14.773Z,96630.38
2023-02-22T05:30:41.673Z,96632.13
2023-02-22T05:33:09.785Z,96629.78
2023-02-22T05:35:37.122Z,96628.06
2023-02-22T05:38:04.886Z,96630.59
2023-02-22T05:40:32.065Z,96622.78
2023-02-22T05:42:59.398Z,96624.53
2023-02-22T05:45:27.430Z,96623.66
2023-02-22T05:47:54.760Z,96624.47
2023-02-22T05:50:21.856Z,96624.31
2023-02-22T05:52:48.804Z,96628.31
2023-02-22T05:55:17.463Z,96624.00
2023-02-22T05:57:44.000Z,96624.13
2023-02-22T06:00:15.981Z,96625.13
2023-02-22T06:02:42.300Z,96621.81
2023-02-22T06:05:08.749Z,96623.66
2023-02-22T06:07:35.225Z,96618.66
2023-02-22T06:10:01.640Z,96620.53
2023-02-22T06:12:28.073Z,96618.03
2023-02-22T06:14:54.544Z,96618.22
2023-02-22T06:17:20.954Z,96610.75
2023-02-22T06:19:47.483Z,96608.34
2023-02-22T06:22:19.194Z,96617.63
2023-02-22T06:24:46.057Z,96618.41
2023-02-22T06:27:12.771Z,96622.41
2023-02-22T06:29:39.358Z,96619.88
2023-02-22T06:32:05.785Z,96627.41
2023-02-22T06:34:32.261Z,96629.16
2023-02-22T06:36:59.987Z,96625.53
2023-02-22T06:39:26.593Z,96629.72
2023-02-22T06:41:55.159Z,96627.13
2023-02-22T06:44:21.966Z,96629.72
2023-02-22T06:46:51.033Z,96635.84
2023-02-22T06:49:19.519Z,96636.75
2023-02-22T06:51:47.036Z,96643.66
2023-02-22T06:54:14.232Z,96631.78
2023-02-22T06:56:40.619Z,96645.44
2023-02-22T06:59:08.336Z,96649.72
2023-02-22T07:01:35.100Z,96643.13
2023-02-22T07:04:01.910Z,96648.25
2023-02-22T07:06:28.480Z,96651.75
2023-02-22T07:08:54.929Z,96644.19
2023-02-22T07:11:21.468Z,96656.09
2023-02-22T07:13:47.974Z,96655.31
2023-02-22T07:16:14.463Z,96645.19
2023-02-22T07:18:40.893Z,96649.47
2023-02-22T07:21:07.676Z,96645.19
2023-02-22T07:23:34.119Z,96646.84
2023-02-22T07:26:01.749Z,96649.44
2023-02-22T07:28:28.382Z,96642.78
2023-02-22T07:30:55.022Z,96643.97
2023-02-22T07:33:21.386Z,96645.78
2023-02-22T07:35:50.243Z,96646.09
2023-02-22T07:38:18.697Z,96648.88
2023-02-22T07:40:45.669Z,96643.19
2023-02-22T07:43:19.786Z,96637.50
2023-02-22T07:45:47.549Z,96635.22
2023-02-22T07:48:17.269Z,96639.66
2023-02-22T07:50:43.987Z,96636.44
2023-02-22T07:53:18.084Z,96640.84
2023-02-22T07:55:44.694Z,96633.41
2023-02-22T07:58:15.237Z,96633.47
2023-02-22T08:00:43.916Z,96631.84
2023-02-22T08:03:13.449Z,96635.38
2023-02-22T08:05:42.129Z,96634.69
2023-02-22T08:08:08.746Z,96628.75
2023-02-22T08:10:36.020Z,96631.44
2023-02-22T08:13:04.259Z,96626.63
2023-02-22T08:15:35.642Z,96630.19
2023-02-22T08:18:04.545Z,96636.00
2023-02-22T08:20:31.615Z,96636.31
2023-02-22T08:22:58.546Z,96634.63
2023-02-22T08:25:27.735Z,96629.81
2023-02-22T08:28:01.060Z,96635.91
2023-02-22T08:30:29.152Z,96626.94
2023-02-22T08:32:56.197Z,96622.03
2023-02-22T08:35:23.118Z,96619.75
2023-02-22T08:37:55.426Z,96619.28
2023-02-22T08:40:24.362Z,96617.00
2023-02-22T08:42:50.834Z,96618.91
2023-02-22T08:45:17.412Z,96616.56
2023-02-22T08:47:44.122Z,96613.41
2023-02-22T08:50:17.507Z,96612.66
2023-02-22T08:52:43.953Z,96618.66
2023-02-22T08:55:10.451Z,96614.63
2023-02-22T08:57:36.793Z,96620.97
2023-02-22T09:00:06.848Z,96618.66
2023-02-22T09:02:33.415Z,96618.03
2023-02-22T09:04:59.936Z,96614.81
2023-02-22T09:07:26.277Z,96618.63
2023-02-22T09:09:52.618Z,96612.97
2023-02-22T09:12:18.972Z,96617.34
2023-02-22T09:14:45.371Z,96618.25
2023-02-22T09:17:11.853Z,96612.72
2023-02-22T09:19:38.226Z,96613.16
2023-02-22T09:22:04.710Z,96613.53
2023-02-22T09:24:31.306Z,96613.69
2023-02-22T09:26:59.723Z,96608.25
2023-02-22T09:29:27.508Z,96606.69
2023-02-22T09:31:55.495Z,96612.34
2023-02-22T09:34:29.323Z,96599.47
2023-02-22T09:36:58.484Z,96605.88
2023-02-22T09:39:25.058Z,96603.47
2023-02-22T09:42:09.471Z,96595.91
2023-02-22T09:44:38.669Z,96600.31
2023-02-22T09:47:10.547Z,96597.75
2023-02-22T09:49:45.798Z,96586.72
2023-02-22T09:52:21.767Z,96592.09
2023-02-22T09:55:25.535Z,96581.19
2023-02-22T09:57:55.512Z,96580.50
2023-02-22T10:00:29.277Z,96577.09
2023-02-22T10:03:24.357Z,96574.59
2023-02-22T10:06:16.832Z,96571.25
2023-02-22T10:08:44.960Z,96565.31
2023-02-22T10:11:23.155Z,96564.44
2023-02-22T10:14:09.781Z,96566.09
2023-02-22T10:16:43.302Z,96566.06
2023-02-22T10:19:20.442Z,96561.00
2023-02-22T10:21:53.481Z,96563.53
2023-02-22T10:24:58.168Z,96554.22
2023-02-22T10:27:34.009Z,96553.38
2023-02-22T10:30:24.400Z,96549.13
2023-02-22T10:33:17.200Z,96546.53
2023-02-22T10:35:46.925Z,96544.81
2023-02-22T10:38:28.951Z,96536.28
2023-02-22T10:41:03.142Z,96543.88
2023-02-22T10:43:30.627Z,96536.06
2023-02-22T10:46:01.699Z,96534.38
2023-02-22T10:48:31.182Z,96531.06
2023-02-22T10:51:01.945Z,96527.53
2023-02-22T10:53:29.150Z,96526.00
2023-02-22T10:56:18.857Z,96525.09
2023-02-22T10:59:05.937Z,96523.38
2023-02-22T11:01:32.313Z,96520.84
2023-02-22T11:04:01.835Z,96516.53
2023-02-22T11:06:28.960Z,96517.28
2023-02-22T11:09:19.068Z,96508.75
2023-02-22T11:11:47.540Z,96508.56
2023-02-22T11:14:26.248Z,96503.97
2023-02-22T11:16:56.713Z,96503.16
2023-02-22T11:19:28.993Z,96496.16
2023-02-22T11:22:18.918Z,96489.91
2023-02-22T11:27:38.568Z,96486.94
2023-02-22T11:30:16.487Z,96475.81
2023-02-22T11:32:56.386Z,96479.09
2023-02-22T11:35:28.762Z,96476.59
2023-02-22T11:38:24.546Z,96463.91
2023-02-22T11:41:14.514Z,96467.16
2023-02-22T11:43:42.963Z,96460.28
2023-02-22T11:46:26.282Z,96456.53
2023-02-22T11:49:20.012Z,96451.66
2023-02-22T11:52:06.512Z,96452.06
2023-02-22T11:54:53.878Z,96451.00
2023-02-22T11:57:39.138Z,96454.38
2023-02-22T12:00:24.351Z,96451.16
2023-02-22T12:03:28.658Z,96454.50
2023-02-22T12:06:09.316Z,96444.41
2023-02-22T12:08:38.790Z,96442.81
2023-02-22T12:11:18.165Z,96439.50
2023-02-22T12:14:13.144Z,96440.69
2023-02-22T12:17:04.798Z,96435.28
2023-02-22T12:19:41.828Z,96439.63
2023-02-22T12:22:29.197Z,96433.84
2023-02-22T12:25:21.948Z,96438.84
2023-02-22T12:27:57.055Z,96425.94
2023-02-22T12:30:30.660Z,96430.34
2023-02-22T12:33:00.731Z,96425.63
2023-02-22T12:35:34.827Z,96411.63
2023-02-22T12:38:37.981Z,96420.19
2023-02-22T12:41:11.485Z,96415.00
2023-02-22T12:43:44.835Z,96417.66
2023-02-22T12:46:28.561Z,96422.25
2023-02-22T12:49:13.861Z,96418.03
2023-02-22T12:51:41.151Z,96415.84
2023-02-22T12:54:33.351Z,96416.59
2023-02-22T12:57:09.783Z,96405.38
2023-02-22T12:59:49.079Z,96407.16
2023-02-22T13:02:25.596Z,96416.63
2023-02-22T13:04:52.059Z,96404.53
2023-02-22T13:07:29.056Z,96401.97
2023-02-22T13:10:20.315Z,96404.34
2023-02-22T13:13:06.837Z,96401.25
2023-02-22T13:15:57.435Z,96394.88
2023-02-22T13:18:58.895Z,96395.88
2023-02-22T13:21:33.832Z,96387.00
2023-02-22T13:24:12.439Z,96391.19
2023-02-22T13:26:50.679Z,96399.09
2023-02-22T13:29:29.128Z,96386.75
2023-02-22T13:32:14.360Z,96388.22
2023-02-22T13:35:08.313Z,96384.03
2023-02-22T13:37:49.875Z,96382.06
2023-02-22T13:40:19.914Z,96379.38
2023-02-22T13:43:17.130Z,96380.91
2023-02-22T13:45:49.569Z,96378.59
2023-02-22T13:48:22.075Z,96379.47
2023-02-22T13:50:53.746Z,96383.94
2023-02-22T13:53:43.673Z,96384.31
2023-02-22T13:56:11.903Z,96380.75
2023-02-22T13:58:53.853Z,96377.88
2023-02-22T14:01:42.497Z,96375.84
2023-02-22T14:04:25.245Z,96378.81
2023-02-22T14:06:51.796Z,96367.53
2023-02-22T14:09:45.510Z,96363.91
2023-02-22T14:12:30.417Z,96366.78
2023-02-22T14:15:28.820Z,96360.28
2023-02-22T14:18:07.342Z,96356.84
2023-02-22T14:20:36.780Z,96352.94
2023-02-22T14:23:29.141Z,96348.19
2023-02-22T14:26:09.036Z,96350.25
2023-02-22T14:28:50.157Z,96343.09
2023-02-22T14:31:35.090Z,96346.22
2023-02-22T14:34:15.291Z,96341.75
2023-02-22T14:36:56.320Z,96340.59
2023-02-22T14:39:32.038Z,96349.00
2023-02-22T14:42:04.864Z,96343.16
2023-02-22T14:44:43.379Z,96345.06
2023-02-22T14:47:20.030Z,96341.47
2023-02-22T14:49:49.164Z,96333.25
2023-02-22T14:52:22.871Z,96342.09
2023-02-22T14:55:04.261Z,96334.28
2023-02-22T14:57:59.141Z,96332.00
2023-02-22T15:00:38.904Z,96333.38
2023-02-22T15:03:05.511Z,96328.19
2023-02-22T15:05:38.406Z,96329.41
2023-02-22T15:08:07.501Z,96328.13
2023-02-22T15:10:36.918Z,96327.34
2023-02-22T15:13:09.518Z,96327.56
2023-02-22T15:15:46.938Z,96322.72
2023-02-22T15:18:22.037Z,96328.88
2023-02-22T15:20:55.914Z,96323.06
2023-02-22T15:23:26.698Z,96318.97
2023-02-22T15:25:54.046Z,96320.41
2023-02-22T15:28:23.019Z,96330.00
2023-02-22T15:30:49.470Z,96322.41
2023-02-22T15:33:24.585Z,96325.16
2023-02-22T15:35:56.785Z,96325.28
2023-02-22T15:38:30.605Z,96325.69
2023-02-22T15:41:05.698Z,96319.03
2023-02-22T15:43:32.633Z,96315.69
2023-02-22T15:45:59.969Z,96316.56
2023-02-22T15:48:29.519Z,96321.09
2023-02-22T15:51:04.227Z,96318.78
2023-02-22T15:53:42.331Z,96328.34
2023-02-22T15:56:18.640Z,96325.06
2023-02-22T15:58:47.436Z,96328.63
2023-02-22T16:01:18.814Z,96330.50
2023-02-22T16:03:58.246Z,96326.31
2023-02-22T16:06:33.495Z,96327.94
2023-02-22T16:09:06.888Z,96331.41
2023-02-22T16:11:40.247Z,96332.31
2023-02-22T16:14:25.555Z,96329.00
2023-02-22T16:17:31.119Z,96327.31
2023-02-22T16:20:18.914Z,96325.75
2023-02-22T16:22:49.388Z,96330.06
2023-02-22T16:25:18.639Z,96336.13
2023-02-22T16:27:51.076Z,96331.00
2023-02-22T16:30:23.974Z,96331.84
2023-02-22T16:32:53.192Z,96333.50
2023-02-22T16:35:19.739Z,96336.91
2023-02-22T16:37:51.430Z,96337.81
2023-02-22T16:40:26.710Z,96336.94
2023-02-22T16:42:53.104Z,96334.44
2023-02-22T16:45:20.765Z,96334.47
2023-02-22T16:47:47.846Z,96336.22
2023-02-22T16:50:14.571Z,96331.13
2023-02-22T16:52:41.676Z,96337.13
2023-02-22T16:55:14.136Z,96339.66
2023-02-22T16:57:42.208Z,96346.50
2023-02-22T17:00:16.085Z,96341.38
2023-02-22T17:02:42.760Z,96343.13
2023-02-22T17:05:14.333Z,96339.69
2023-02-22T17:07:41.010Z,96333.66
2023-02-22T17:10:08.483Z,96341.34
2023-02-22T17:12:34.969Z,96344.75
2023-02-22T17:15:03.395Z,96344.81
2023-02-22T17:17:29.776Z,96338.00
2023-02-22T17:19:56.210Z,96352.53
2023-02-22T17:22:22.866Z,96346.63
2023-02-22T17:24:49.335Z,96348.34
2023-02-22T17:27:15.734Z,96344.13
2023-02-22T17:29:42.152Z,96345.03
2023-02-22T17:32:09.322Z,96356.97
2023-02-22T17:34:36.000Z,96349.31
2023-02-22T17:37:02.628Z,96350.16
2023-02-22T17:39:29.216Z,96345.00
2023-02-22T17:41:57.646Z,96346.72
2023-02-22T17:44:26.177Z,96350.94
2023-02-22T17:46:53.338Z,96360.31
2023-02-22T17:49:19.760Z,96344.97
2023-02-22T17:51:49.478Z,96350.09
2023-02-22T17:54:17.890Z,96349.25
2023-02-22T17:56:44.654Z,96351.78
2023-02-22T17:59:11.313Z,96339.84
2023-02-22T18:01:38.048Z,96344.94
2023-02-22T18:04:05.229Z,96335.53
2023-02-22T18:06:32.680Z,96341.47
2023-02-22T18:09:00.687Z,96340.59
2023-02-22T18:11:28.868Z,96345.69
2023-02-22T18:13:57.650Z,96347.38
2023-02-22T18:16:28.007Z,96346.50
2023-02-22T18:18:55.678Z,96348.22
2023-02-22T18:21:23.003Z,96343.94
2023-02-22T18:23:49.499Z,96346.56
2023-02-22T18:26:17.954Z,96345.72
2023-02-22T18:28:44.996Z,96346.56
2023-02-22T18:31:17.307Z,96346.56
2023-02-22T18:33:45.786Z,96343.97
2023-02-22T18:36:14.087Z,96339.72
2023-02-22T18:38:42.854Z,96345.69
2023-02-22T18:41:14.708Z,96344.78
2023-02-22T18:43:41.192Z,96339.66
2023-02-22T18:46:13.855Z,96341.34
2023-02-22T18:48:40.729Z,96337.09
2023-02-22T18:51:12.935Z,96331.97
2023-02-22T18:53:41.600Z,96337.84
2023-02-22T18:56:12.758Z,96334.47
2023-02-22T18:58:39.159Z,96340.47
2023-02-22T19:01:06.808Z,96337.03
2023-02-22T19:03:37.905Z,96336.16
2023-02-22T19:06:09.245Z,96334.44
2023-02-22T19:08:39.445Z,96331.84
2023-02-22T19:11:12.624Z,96323.34
2023-02-22T19:13:38.994Z,96333.63
2023-02-22T19:16:07.252Z,96336.19
2023-02-22T19:18:34.098Z,96331.94
2023-02-22T19:21:02.937Z,96331.97
2023-02-22T19:23:34.361Z,96328.56
2023-02-22T19:26:02.383Z,96322.56
2023-02-22T19:28:33.816Z,96330.25
2023-02-22T19:31:33.369Z,96331.97
2023-02-22T19:34:09.156Z,96322.53
2023-02-22T19:36:39.980Z,96332.78
2023-02-22T19:39:08.166Z,96328.56
2023-02-22T19:41:34.644Z,96336.19
2023-02-22T19:44:01.730Z,96333.63
2023-02-22T19:46:28.353Z,96334.50
2023-02-22T19:48:58.101Z,96340.47
2023-02-22T19:51:27.857Z,96337.06
2023-02-22T19:53:58.969Z,96340.47
2023-02-22T19:56:30.510Z,96346.44
2023-02-22T19:59:03.109Z,96348.16
2023-02-22T20:01:32.932Z,96338.81
2023-02-22T20:04:08.934Z,96349.91
2023-02-22T20:06:41.571Z,96343.06
2023-02-22T20:09:10.862Z,96346.47
2023-02-22T20:11:37.640Z,96345.63
2023-02-22T20:14:06.618Z,96345.63
2023-02-22T20:16:33.905Z,96348.13
2023-02-22T20:19:01.766Z,96352.38
2023-02-22T20:21:31.253Z,96345.56
2023-02-22T20:24:11.591Z,96353.22
2023-02-22T20:26:39.256Z,96351.47
2023-02-22T20:29:07.654Z,96355.75
2023-02-22T20:31:34.196Z,96354.06
2023-02-22T20:34:01.909Z,96345.50
2023-02-22T20:36:29.938Z,96355.75
2023-02-22T20:39:00.284Z,96350.63
2023-02-22T20:41:31.413Z,96351.50
2023-02-22T20:43:58.674Z,96355.81
2023-02-22T20:46:26.849Z,96358.34
2023-02-22T20:48:57.991Z,96353.22
2023-02-22T20:51:24.963Z,96353.19
2023-02-22T20:53:51.791Z,96355.75
2023-02-22T20:56:23.360Z,96351.44
2023-02-22T20:58:50.364Z,96357.31
2023-02-22T21:01:20.785Z,96353.00
2023-02-22T21:03:48.001Z,96356.41
2023-02-22T21:06:16.650Z,96353.06
2023-02-22T21:08:45.194Z,96355.59
2023-02-22T21:11:13.173Z,96353.81
2023-02-22T21:13:40.223Z,96356.31
2023-02-22T21:16:07.841Z,96354.63
2023-02-22T21:18:34.295Z,96352.00
2023-02-22T21:21:10.300Z,96352.81
2023-02-22T21:23:37.979Z,96345.09
2023-02-22T21:26:04.937Z,96345.06
2023-02-22T21:28:50.446Z,96342.44
2023-02-22T21:31:20.488Z,96342.41
2023-02-22T21:33:50.502Z,96356.00
2023-02-22T21:36:17.767Z,96350.00
2023-02-22T21:38:46.571Z,96348.34
2023-02-22T21:41:14.021Z,96354.31
2023-02-22T21:43:41.470Z,96349.22
2023-02-22T21:46:11.857Z,96348.41
2023-02-22T21:48:41.033Z,96350.97
2023-02-22T21:51:17.332Z,96354.38
2023-02-22T21:53:48.384Z,96352.72
2023-02-22T21:56:20.690Z,96350.16
2023-02-22T21:58:51.223Z,96341.59
2023-02-22T22:01:18.316Z,96350.97
2023-02-22T22:03:46.451Z,96346.72
2023-02-22T22:06:14.175Z,96344.13
2023-02-22T22:08:42.879Z,96345.81
2023-02-22T22:11:11.137Z,96353.41
2023-02-22T22:13:39.182Z,96350.84
2023-02-22T22:16:11.960Z,96351.66
2023-02-22T22:18:40.449Z,96343.13
2023-02-22T22:21:14.009Z,96346.41
2023-02-22T22:23:41.301Z,96352.28
2023-02-22T22:26:12.575Z,96347.97
2023-02-22T22:28:41.182Z,96348.81
2023-02-22T22:31:09.824Z,96347.91
2023-02-22T22:33:37.798Z,96347.91
2023-02-22T22:36:05.834Z,96354.75
2023-02-22T22:38:33.326Z,96346.31
2023-02-22T22:41:01.193Z,96348.88
2023-02-22T22:43:31.409Z,96348.06
2023-02-22T22:46:05.599Z,96347.22
2023-02-22T22:48:35.940Z,96348.09
2023-02-22T22:51:06.579Z,96352.38
2023-02-22T22:53:34.510Z,96350.59
2023-02-22T22:56:14.063Z,96349.75
2023-02-22T22:58:49.503Z,96348.91
2023-02-22T23:01:18.349Z,96347.22
2023-02-22T23:03:55.135Z,96352.31
2023-02-22T23:06:24.879Z,96348.06
2023-02-22T23:09:10.171Z,96353.16
2023-02-22T23:11:45.178Z,96357.41
2023-02-22T23:14:15.250Z,96367.59
2023-02-22T23:16:42.840Z,96363.28
2023-02-22T23:19:09.867Z,96359.03
2023-02-22T23:21:36.832Z,96353.03
2023-02-22T23:24:07.438Z,96364.09
2023-02-22T23:26:34.866Z,96361.50
2023-02-22T23:29:02.608Z,96349.59
2023-02-22T23:31:29.175Z,96354.72
2023-02-22T23:33:58.513Z,96356.44
2023-02-22T23:36:26.347Z,96353.00
2023-02-22T23:38:52.822Z,96355.53
2023-02-22T23:41:19.663Z,96355.56
2023-02-22T23:43:46.523Z,96357.25
2023-02-22T23:46:18.382Z,96357.25
2023-02-22T23:48:54.634Z,96356.34
2023-02-22T23:51:25.419Z,96360.56
2023-02-22T23:53:55.670Z,96362.28
2023-02-22T23:56:27.779Z,96371.56
2023-02-22T23:58:57.378Z,96370.69
